Decoded Metar for KVNY (VAN NUYS in CA, USA) (IATA:VNY) | Meteo·Mobile Aviation Weather
aviador You're here:

KVNY Decoded Metar

VAN NUYS in CA, USA
Report Time2019-10-22 12:51:00
UTC Time2019-10-22 13:40:47
Flight Rules vfr VFR
Wind270° at 04 kt
W.Decomp.*RWY 34: 0.3 kt HW 4 kt LCW
Visibility9999 m
Phenomena:N/A
Clouds:N/A
Expected CloudBase > 7,600 ft AGL from Temp-Dew spread
CeilingNone
Temp20°C (ISA +7)
Dew Point01°C (28% RH)
AAT16.7°C
QNH1018 hPa
Density Alt1,503 ft
Elevation804 ft
Report Wrong Elevation
Raw Report
KVNY 221251Z 27004KT 10SM CLR 20/01 A3007 RMK AO2 SLP174
T02000006=

Extra information for KVNY:More info

Metar Taf Metar & Taf Last 4 Metars F.Rules Stats Wind Profile Meteogram Temp Stats Airport Information Weather charts Add Link Nearby VenuesMetar ALERT Operation Metar Decoded Social comments

AIRNAV info for KVNY